Springfield, IL (62705)

7:28 AM CST on March 06, 2015 (GMT -0600)
Northgate Subdivision | Change Station
CLOSE
Current Station
Personal Weather Station
Location: Springfield, IL
Elevation: 590 ft
Nearby Weather Stations

Elev 590 ft 39.83 °N, 89.61 °W | Updated 15 seconds ago

Clear
Clear
13.3 °F
Feels Like 1 °F
N
9.3
Wind Variable Wind from South
Gusts 17.6 mph

Today
High -- | Low -- °F
--% Chance of Precip.
Yesterday
High -- | Low -- °F
Precip. -- in
6:24 AM 5:55 PM
Waxing Gibbous, 99% visible
Pressure 30.53 in
Visibility 10.0 miles
Clouds Clear
Windchill 1 °F
Dew Point 6 °F
Humidity 71%
Rainfall in
Snow Depth Not available.
UV 0 out of 12
Pollen .70 out of 12
Air Quality Not available.
Flu Activity Not available.
METAR KSPI 061252Z 18012KT 10SM CLR M13/M17 A3049 RMK AO2 SLP337 T11281172

More Conditions Fewer Conditions

Pressure 30.53 in
Visibility 10.0 miles
Clouds Clear
Windchill 1 °F
Dew Point 6 °F
Humidity 71%
Rainfall in
Snow Depth Not available.
UV 0 out of 12
Pollen .70 out of 12
Air Quality Not available.
Flu Activity Not available.
METAR KSPI 061252Z 18012KT 10SM CLR M13/M17 A3049 RMK AO2 SLP337 T11281172

More Conditions Fewer Conditions

10-Day Weather Forecast

Almanac

Astronomy

Mar. 06, 2015 Rise Set
Actual Time
Civil Twilight
Nautical Twilight
Astronomical Twilight
Moon
Length of Visible Light
Length of Day
Tomorrow will be .
, % of the Moon is Illuminated

Today's Extremes

State Highs State Lows

Community

WunderPhotos

Upload Photos

1,803,258 photos uploaded!

WunderBlogs® & News

Nearby

Air Quality

  Air Quality AQ Index Pollutant
Not available.

Snow Depth

Station Depth Elevation

Earthquake Activity

City Distance Mag. Time & Date
Minimum magnitude displayed is 2.5.

Coastal Water Temperatures

Place Temperature

Nearby Weather Stations